Time;durP1;ratioP1;P1;durP2;ratioP2;P2;SDS_P1;SDS_P2;PMS_P1;PMS_P2;Temp;Humidity;BMP_temperature;BMP_pressure;BME280_temperature;BME280_humidity;BME280_pressure;Samples;Min_cycle;Max_cycle;Signal;HPM_P1;HPM_P2
2021/01/26 00:04:03;;;;;;;12.37;2.43;;;;;;;;;;10244588;28;20300;-77
2021/01/26 00:09:05;;;;;;;9.40;2.20;;;;;;;;;;10248262;28;20417;-77
2021/01/26 00:14:08;;;;;;;10.57;2.17;;;;;;;;;;10248229;28;20237;-78
2021/01/26 00:19:10;;;;;;;11.73;2.40;;;;;;;;;;10243686;28;20672;-78
2021/01/26 00:24:12;;;;;;;10.50;2.47;;;;;;;;;;10247330;28;20533;-77
2021/01/26 00:29:15;;;;;;;8.40;2.20;;;;;;;;;;10242473;28;20600;-77
2021/01/26 00:34:16;;;;;;;8.90;2.30;;;;;;;;;;10250556;28;20241;-76
2021/01/26 00:39:18;;;;;;;9.77;2.30;;;;;;;;;;10246250;28;20230;-76
2021/01/26 00:44:21;;;;;;;7.80;1.87;;;;;;;;;;10233744;28;20274;-76
2021/01/26 00:49:23;;;;;;;8.83;1.97;;;;;;;;;;10242874;28;20214;-75
2021/01/26 00:54:25;;;;;;;5.43;1.60;;;;;;;;;;10242024;28;20222;-76
2021/01/26 00:59:28;;;;;;;9.80;1.80;;;;;;;;;;10237754;28;20699;-76
2021/01/26 01:04:30;;;;;;;6.67;1.70;;;;;;;;;;10744621;23;20238;-76
2021/01/26 01:09:31;;;;;;;8.63;1.63;;;;;;;;;;10250680;28;20597;-73
2021/01/26 01:14:34;;;;;;;9.80;1.60;;;;;;;;;;10246851;28;20214;-76
2021/01/26 01:19:36;;;;;;;7.37;1.77;;;;;;;;;;10254331;28;20225;-73
2021/01/26 01:24:38;;;;;;;10.73;2.00;;;;;;;;;;10621505;23;20776;-89
2021/01/26 01:29:41;;;;;;;9.33;1.90;;;;;;;;;;10297017;28;20224;-89
2021/01/26 01:34:43;;;;;;;6.57;1.60;;;;;;;;;;10293377;28;20210;-88
2021/01/26 01:39:44;;;;;;;10.00;2.03;;;;;;;;;;10287507;28;20249;-89
2021/01/26 01:44:47;;;;;;;8.37;1.90;;;;;;;;;;10290203;28;20237;-90
2021/01/26 01:49:49;;;;;;;8.97;2.00;;;;;;;;;;10284741;28;20205;-88
2021/01/26 01:54:56;;;;;;;7.00;2.00;;;;;;;;;;10291147;28;20241;-89
2021/01/26 02:00:00;;;;;;;7.20;1.70;;;;;;;;;;10297421;28;20206;-86
2021/01/26 02:05:03;;;;;;;6.83;1.60;;;;;;;;;;10264488;28;20238;-89
2021/01/26 02:10:07;;;;;;;9.30;2.13;;;;;;;;;;10256288;28;20682;-88
2021/01/26 02:15:10;;;;;;;8.57;1.87;;;;;;;;;;10266103;28;20215;-88
2021/01/26 02:20:24;;;;;;;6.03;1.80;;;;;;;;;;10266558;28;20671;-87
2021/01/26 02:25:45;;;;;;;8.70;1.63;;;;;;;;;;10257649;28;20234;-89
2021/01/26 02:30:52;;;;;;;7.40;1.87;;;;;;;;;;10253061;28;20603;-85
2021/01/26 02:36:02;;;;;;;8.00;1.80;;;;;;;;;;10270211;28;20219;-87
2021/01/26 02:41:07;;;;;;;6.70;1.43;;;;;;;;;;10255397;28;20246;-86
2021/01/26 02:46:11;;;;;;;6.77;1.43;;;;;;;;;;10260084;28;20234;-87
2021/01/26 02:51:16;;;;;;;5.10;1.43;;;;;;;;;;10260937;28;20657;-87
2021/01/26 02:56:21;;;;;;;7.90;1.97;;;;;;;;;;10258269;28;20215;-86
2021/01/26 03:01:25;;;;;;;10.80;2.17;;;;;;;;;;10258247;28;20348;-87
2021/01/26 03:06:28;;;;;;;8.43;1.87;;;;;;;;;;10257045;28;20222;-88
2021/01/26 03:11:33;;;;;;;10.40;2.13;;;;;;;;;;10251361;28;20226;-90
2021/01/26 03:16:36;;;;;;;9.67;2.40;;;;;;;;;;10266175;28;20220;-87
2021/01/26 03:21:39;;;;;;;14.10;2.33;;;;;;;;;;10259308;28;20234;-87
2021/01/26 03:26:44;;;;;;;9.93;2.13;;;;;;;;;;10254359;28;20226;-87
2021/01/26 03:31:47;;;;;;;5.77;1.77;;;;;;;;;;10262639;28;20214;-87
2021/01/26 03:36:50;;;;;;;9.17;2.00;;;;;;;;;;10267769;28;20218;-84
2021/01/26 03:41:52;;;;;;;7.13;1.70;;;;;;;;;;10264313;28;20238;-86
2021/01/26 03:47:00;;;;;;;15.40;2.10;;;;;;;;;;10266284;28;20222;-86
2021/01/26 03:52:20;;;;;;;11.87;2.10;;;;;;;;;;10267186;28;20495;-86
2021/01/26 03:57:31;;;;;;;11.67;2.07;;;;;;;;;;10259754;28;21174;-86
2021/01/26 04:02:35;;;;;;;11.20;2.17;;;;;;;;;;10261580;28;20241;-88
2021/01/26 04:07:40;;;;;;;11.43;2.30;;;;;;;;;;10246772;28;20242;-86
2021/01/26 04:12:45;;;;;;;13.27;2.30;;;;;;;;;;10256058;28;20228;-86
2021/01/26 04:17:50;;;;;;;10.47;2.40;;;;;;;;;;10256611;28;20215;-87
2021/01/26 04:22:53;;;;;;;9.97;2.23;;;;;;;;;;10256485;28;20241;-87
2021/01/26 04:27:55;;;;;;;7.10;1.73;;;;;;;;;;10254467;28;20218;-86
2021/01/26 04:32:58;;;;;;;9.23;1.80;;;;;;;;;;10256642;28;20218;-87
2021/01/26 04:38:01;;;;;;;9.67;2.00;;;;;;;;;;10252175;28;20214;-86
2021/01/26 04:43:08;;;;;;;9.07;1.80;;;;;;;;;;10253979;28;20317;-87
2021/01/26 04:48:12;;;;;;;10.30;1.60;;;;;;;;;;10260080;28;20584;-86
2021/01/26 04:53:32;;;;;;;8.03;2.00;;;;;;;;;;10254515;28;20765;-86
2021/01/26 04:58:40;;;;;;;6.03;1.60;;;;;;;;;;10252156;28;20245;-86
2021/01/26 05:03:54;;;;;;;8.07;2.03;;;;;;;;;;10246491;28;20244;-85
2021/01/26 05:08:57;;;;;;;9.87;2.17;;;;;;;;;;10237224;28;20306;-86
2021/01/26 05:14:01;;;;;;;8.33;2.20;;;;;;;;;;10257846;28;20224;-88
2021/01/26 05:19:06;;;;;;;15.93;2.50;;;;;;;;;;10256326;28;20443;-86
2021/01/26 05:24:14;;;;;;;13.20;1.83;;;;;;;;;;10254712;28;20245;-86
2021/01/26 05:29:17;;;;;;;7.60;1.93;;;;;;;;;;10251610;28;20226;-88
2021/01/26 05:34:22;;;;;;;5.07;1.60;;;;;;;;;;10264881;28;20304;-87
2021/01/26 05:39:28;;;;;;;11.03;1.73;;;;;;;;;;10248777;28;20221;-85
2021/01/26 05:44:31;;;;;;;5.13;1.60;;;;;;;;;;10249462;28;20242;-84
2021/01/26 05:49:34;;;;;;;7.37;1.73;;;;;;;;;;10246677;28;20234;-85
2021/01/26 05:54:37;;;;;;;10.97;1.83;;;;;;;;;;10248483;28;20218;-84
2021/01/26 05:59:40;;;;;;;5.50;1.70;;;;;;;;;;10249348;28;20225;-84
2021/01/26 06:04:42;;;;;;;6.93;1.80;;;;;;;;;;10253711;28;20687;-86
2021/01/26 06:09:44;;;;;;;6.87;1.53;;;;;;;;;;10251246;28;20224;-80
2021/01/26 06:14:47;;;;;;;4.37;1.63;;;;;;;;;;10246767;28;20681;-87
2021/01/26 06:20:01;;;;;;;6.43;1.87;;;;;;;;;;10257999;28;21545;-85
2021/01/26 06:25:05;;;;;;;10.43;1.80;;;;;;;;;;10263137;28;20260;-86
2021/01/26 06:30:14;;;;;;;7.10;2.10;;;;;;;;;;10254135;28;20680;-77
2021/01/26 06:35:19;;;;;;;5.90;1.60;;;;;;;;;;10251176;28;20679;-83
2021/01/26 06:40:30;;;;;;;6.07;1.73;;;;;;;;;;10257429;28;20706;-86
2021/01/26 06:45:39;;;;;;;6.20;1.63;;;;;;;;;;10256060;28;20238;-86
2021/01/26 06:50:48;;;;;;;7.87;1.70;;;;;;;;;;10259095;28;20246;-89
2021/01/26 06:55:58;;;;;;;5.77;1.50;;;;;;;;;;10252033;28;20759;-86
2021/01/26 07:01:05;;;;;;;7.33;1.87;;;;;;;;;;10244763;28;20210;-87
2021/01/26 07:06:15;;;;;;;5.93;1.50;;;;;;;;;;10260908;28;20230;-87
2021/01/26 07:11:23;;;;;;;4.60;1.57;;;;;;;;;;10260076;28;20225;-87
2021/01/26 07:16:37;;;;;;;8.43;1.87;;;;;;;;;;10273755;28;20230;-88
2021/01/26 07:21:45;;;;;;;15.03;2.10;;;;;;;;;;10265861;28;20726;-89
2021/01/26 07:27:20;;;;;;;4.93;1.70;;;;;;;;;;10256051;28;20228;-89
2021/01/26 07:32:24;;;;;;;4.70;1.70;;;;;;;;;;10260588;28;20214;-88
2021/01/26 07:37:29;;;;;;;5.80;1.80;;;;;;;;;;10259156;28;20257;-87
2021/01/26 07:42:34;;;;;;;8.20;1.90;;;;;;;;;;10261435;28;20238;-88
2021/01/26 07:47:37;;;;;;;5.90;1.70;;;;;;;;;;10260163;28;20699;-89
2021/01/26 07:52:40;;;;;;;6.63;1.73;;;;;;;;;;10252515;28;20318;-89
2021/01/26 07:57:44;;;;;;;6.90;1.77;;;;;;;;;;10254219;28;20569;-89
2021/01/26 08:02:50;;;;;;;6.90;2.13;;;;;;;;;;10266614;28;20609;-89
2021/01/26 08:08:02;;;;;;;7.77;1.67;;;;;;;;;;10265734;28;20285;-89
2021/01/26 08:13:04;;;;;;;5.77;1.77;;;;;;;;;;10269950;28;20241;-89
2021/01/26 08:18:18;;;;;;;3.90;1.50;;;;;;;;;;10259536;28;20535;-88
2021/01/26 08:23:22;;;;;;;6.47;1.57;;;;;;;;;;10257511;28;20250;-89
2021/01/26 08:28:43;;;;;;;5.73;1.57;;;;;;;;;;10265839;28;20702;-89
2021/01/26 08:33:46;;;;;;;4.53;1.60;;;;;;;;;;10262667;28;20321;-88
2021/01/26 08:38:57;;;;;;;5.03;1.60;;;;;;;;;;10264219;28;20214;-88
2021/01/26 08:43:59;;;;;;;6.23;1.80;;;;;;;;;;10258928;28;20241;-90
2021/01/26 08:49:17;;;;;;;8.10;1.80;;;;;;;;;;10259560;28;20233;-89
2021/01/26 08:54:39;;;;;;;14.90;2.07;;;;;;;;;;10263942;28;20725;-88
2021/01/26 08:59:41;;;;;;;10.27;2.60;;;;;;;;;;10262373;28;20210;-88
2021/01/26 09:04:48;;;;;;;7.27;2.10;;;;;;;;;;10258339;28;20250;-88
2021/01/26 09:09:52;;;;;;;14.97;2.27;;;;;;;;;;10260207;28;20313;-88
2021/01/26 09:14:55;;;;;;;6.97;2.00;;;;;;;;;;10265182;28;20361;-85
2021/01/26 09:20:05;;;;;;;6.27;1.77;;;;;;;;;;10261746;28;20717;-83
2021/01/26 09:25:15;;;;;;;7.33;2.10;;;;;;;;;;10256744;28;20234;-85
2021/01/26 09:30:18;;;;;;;9.47;1.80;;;;;;;;;;10263680;28;20222;-86
2021/01/26 09:35:27;;;;;;;10.97;2.07;;;;;;;;;;10260800;28;20282;-82
2021/01/26 09:40:29;;;;;;;8.63;1.90;;;;;;;;;;10256185;28;20238;-84
2021/01/26 09:45:31;;;;;;;6.30;1.97;;;;;;;;;;10254935;28;20249;-83
2021/01/26 09:50:35;;;;;;;6.07;1.90;;;;;;;;;;10260732;28;20250;-84
2021/01/26 09:55:37;;;;;;;6.50;1.80;;;;;;;;;;10259375;28;20226;-82
2021/01/26 10:00:39;;;;;;;7.03;1.90;;;;;;;;;;10264478;28;20219;-84
2021/01/26 10:05:42;;;;;;;7.23;1.53;;;;;;;;;;10259251;28;20260;-85
2021/01/26 10:10:44;;;;;;;6.17;1.70;;;;;;;;;;10266419;28;20438;-85
2021/01/26 10:15:46;;;;;;;7.63;1.73;;;;;;;;;;10257694;28;20227;-84
2021/01/26 10:20:58;;;;;;;7.80;1.60;;;;;;;;;;10255145;28;20219;-86
2021/01/26 10:26:06;;;;;;;4.57;1.73;;;;;;;;;;10256650;28;20242;-85
2021/01/26 10:31:17;;;;;;;6.57;1.77;;;;;;;;;;10261837;28;20214;-86
2021/01/26 10:36:30;;;;;;;6.43;1.90;;;;;;;;;;10263622;28;20235;-86
2021/01/26 10:41:33;;;;;;;9.93;2.20;;;;;;;;;;10271663;28;20253;-86
2021/01/26 10:46:38;;;;;;;5.30;1.90;;;;;;;;;;10281966;28;20545;-84
2021/01/26 10:51:42;;;;;;;13.37;2.17;;;;;;;;;;10288113;28;20246;-86
2021/01/26 10:56:44;;;;;;;10.13;2.20;;;;;;;;;;10288355;28;20790;-87
2021/01/26 11:01:46;;;;;;;8.93;2.10;;;;;;;;;;10266974;28;20336;-86
2021/01/26 11:06:49;;;;;;;9.93;1.90;;;;;;;;;;10262877;28;20328;-87
2021/01/26 11:11:51;;;;;;;7.80;1.57;;;;;;;;;;10265800;28;20225;-86
2021/01/26 11:16:53;;;;;;;8.10;1.70;;;;;;;;;;10272172;28;20415;-86
2021/01/26 11:21:58;;;;;;;4.50;1.73;;;;;;;;;;10274306;28;20249;-87
2021/01/26 11:27:00;;;;;;;7.20;1.60;;;;;;;;;;10272278;28;20214;-86
2021/01/26 11:32:02;;;;;;;4.20;1.60;;;;;;;;;;10268510;28;20222;-87
2021/01/26 11:37:05;;;;;;;8.90;1.77;;;;;;;;;;10263775;28;20221;-86
2021/01/26 11:42:08;;;;;;;5.83;1.47;;;;;;;;;;10264236;28;20246;-86
2021/01/26 11:47:10;;;;;;;4.63;1.40;;;;;;;;;;10257008;28;20672;-88
2021/01/26 11:52:14;;;;;;;3.00;1.33;;;;;;;;;;10265957;28;20221;-88
2021/01/26 11:57:15;;;;;;;2.67;1.33;;;;;;;;;;10259430;28;20222;-88
2021/01/26 12:02:17;;;;;;;5.27;1.63;;;;;;;;;;10262859;28;20611;-88
2021/01/26 12:07:20;;;;;;;5.87;1.50;;;;;;;;;;10260251;28;20218;-89
2021/01/26 12:12:22;;;;;;;2.67;1.50;;;;;;;;;;10264413;28;20305;-82
2021/01/26 12:17:24;;;;;;;4.77;1.40;;;;;;;;;;10248522;28;20629;-82
2021/01/26 12:22:27;;;;;;;3.60;1.30;;;;;;;;;;10252593;28;20237;-81
2021/01/26 12:27:30;;;;;;;3.77;1.30;;;;;;;;;;10240389;28;20577;-89
2021/01/26 12:32:35;;;;;;;3.53;1.40;;;;;;;;;;10252095;28;20221;-89
2021/01/26 12:37:38;;;;;;;5.17;1.60;;;;;;;;;;10249076;28;20225;-85
2021/01/26 12:42:40;;;;;;;11.27;1.70;;;;;;;;;;10249066;28;20250;-87
2021/01/26 12:47:41;;;;;;;2.63;1.40;;;;;;;;;;10249219;28;20576;-85
2021/01/26 12:52:45;;;;;;;3.50;1.50;;;;;;;;;;10257130;28;20774;-83
2021/01/26 12:57:47;;;;;;;6.83;2.00;;;;;;;;;;10252022;28;20253;-86
2021/01/26 13:02:49;;;;;;;6.03;1.93;;;;;;;;;;10252917;28;20364;-83
2021/01/26 13:07:52;;;;;;;4.73;1.70;;;;;;;;;;10250666;28;20221;-84
2021/01/26 13:12:54;;;;;;;11.50;2.30;;;;;;;;;;10249779;28;20214;-82
2021/01/26 13:17:55;;;;;;;9.10;2.10;;;;;;;;;;10248437;28;20229;-82
2021/01/26 13:22:59;;;;;;;7.57;2.27;;;;;;;;;;10247247;28;20242;-82
2021/01/26 13:28:02;;;;;;;12.43;3.00;;;;;;;;;;10241134;28;20219;-82
2021/01/26 13:33:04;;;;;;;9.27;2.40;;;;;;;;;;10250254;28;20477;-81
2021/01/26 13:38:07;;;;;;;11.07;2.67;;;;;;;;;;10251993;28;20221;-82
2021/01/26 13:43:11;;;;;;;13.03;3.83;;;;;;;;;;10250937;28;20739;-82
2021/01/26 13:48:15;;;;;;;15.17;4.80;;;;;;;;;;10255265;28;20243;-83
2021/01/26 13:53:18;;;;;;;16.23;5.63;;;;;;;;;;10249697;28;20217;-84
2021/01/26 13:58:20;;;;;;;15.40;4.50;;;;;;;;;;10247851;28;20222;-87
2021/01/26 14:03:22;;;;;;;7.83;3.10;;;;;;;;;;10253507;28;20604;-78
2021/01/26 14:08:25;;;;;;;9.17;2.60;;;;;;;;;;10251278;28;20435;-84
2021/01/26 14:13:28;;;;;;;9.37;2.30;;;;;;;;;;10255051;28;20371;-84
2021/01/26 14:18:30;;;;;;;7.40;2.07;;;;;;;;;;10255388;28;20217;-84
2021/01/26 14:23:33;;;;;;;7.33;2.27;;;;;;;;;;10262818;28;20230;-85
2021/01/26 14:28:36;;;;;;;6.80;2.20;;;;;;;;;;10263105;28;20210;-84
2021/01/26 14:33:38;;;;;;;8.87;1.93;;;;;;;;;;10258496;28;20378;-84
2021/01/26 14:38:42;;;;;;;5.03;1.90;;;;;;;;;;10258176;28;20273;-85
2021/01/26 14:43:44;;;;;;;7.30;2.03;;;;;;;;;;10257141;28;20309;-86
2021/01/26 14:48:47;;;;;;;7.13;1.83;;;;;;;;;;10260917;28;20373;-82
2021/01/26 14:53:51;;;;;;;10.37;2.30;;;;;;;;;;10254711;28;20751;-85
2021/01/26 14:58:55;;;;;;;7.60;2.00;;;;;;;;;;10257876;28;20245;-84
2021/01/26 15:03:57;;;;;;;8.57;2.30;;;;;;;;;;10257686;28;20791;-84
2021/01/26 15:09:04;;;;;;;6.77;1.90;;;;;;;;;;10260506;28;20225;-85
2021/01/26 15:14:07;;;;;;;6.57;1.80;;;;;;;;;;10257070;28;20288;-83
2021/01/26 15:19:09;;;;;;;8.23;1.83;;;;;;;;;;10258770;28;20210;-85
2021/01/26 15:24:20;;;;;;;5.47;1.87;;;;;;;;;;10251341;28;20305;-85
2021/01/26 15:29:25;;;;;;;10.83;2.07;;;;;;;;;;10254538;28;20218;-83
2021/01/26 15:34:27;;;;;;;9.20;1.90;;;;;;;;;;10259760;28;20684;-83
2021/01/26 15:39:30;;;;;;;9.57;1.80;;;;;;;;;;10245907;28;20219;-84
2021/01/26 15:44:32;;;;;;;6.33;1.70;;;;;;;;;;10256843;28;20787;-84
2021/01/26 15:49:35;;;;;;;4.70;1.77;;;;;;;;;;10254942;28;20210;-84
2021/01/26 15:54:41;;;;;;;12.27;2.37;;;;;;;;;;10256724;28;20679;-84
2021/01/26 15:59:43;;;;;;;11.43;2.50;;;;;;;;;;10253745;28;20218;-85
2021/01/26 16:04:46;;;;;;;4.90;2.20;;;;;;;;;;10254173;28;20238;-83
2021/01/26 16:09:49;;;;;;;4.90;2.20;;;;;;;;;;10256989;28;20224;-84
2021/01/26 16:14:52;;;;;;;9.10;2.20;;;;;;;;;;10259212;28;20305;-82
2021/01/26 16:19:56;;;;;;;8.00;2.70;;;;;;;;;;10252735;28;20250;-85
2021/01/26 16:24:59;;;;;;;11.93;2.60;;;;;;;;;;10254294;28;20245;-84
2021/01/26 16:30:01;;;;;;;10.03;2.40;;;;;;;;;;10253855;28;20214;-84
2021/01/26 16:35:03;;;;;;;6.70;2.23;;;;;;;;;;10264237;28;20218;-84
2021/01/26 16:40:09;;;;;;;5.73;2.37;;;;;;;;;;10253422;28;20222;-84
2021/01/26 16:45:11;;;;;;;8.67;2.50;;;;;;;;;;10250354;28;20238;-85
2021/01/26 16:50:14;;;;;;;8.70;2.47;;;;;;;;;;10253869;28;20688;-79
2021/01/26 16:55:17;;;;;;;6.83;2.73;;;;;;;;;;10248108;28;20218;-83
2021/01/26 17:00:21;;;;;;;5.47;2.27;;;;;;;;;;10258703;28;20214;-83
2021/01/26 17:05:38;;;;;;;6.73;2.20;;;;;;;;;;10253308;28;20345;-81
2021/01/26 17:10:41;;;;;;;9.33;2.80;;;;;;;;;;10261262;28;20218;-82
2021/01/26 17:15:44;;;;;;;7.70;2.70;;;;;;;;;;10269971;28;20217;-82
2021/01/26 17:20:47;;;;;;;7.10;2.90;;;;;;;;;;10256514;28;20340;-82
2021/01/26 17:25:51;;;;;;;6.23;2.80;;;;;;;;;;10243472;28;20601;-84
2021/01/26 17:30:54;;;;;;;12.77;2.80;;;;;;;;;;10256221;28;20322;-82
2021/01/26 17:36:00;;;;;;;7.37;2.77;;;;;;;;;;10254688;28;20691;-79
2021/01/26 17:41:03;;;;;;;8.17;3.27;;;;;;;;;;10260301;28;20416;-79
2021/01/26 17:46:05;;;;;;;9.70;3.20;;;;;;;;;;10260864;28;20257;-86
2021/01/26 17:51:08;;;;;;;11.90;3.57;;;;;;;;;;10252988;28;20210;-81
2021/01/26 17:56:10;;;;;;;8.97;3.43;;;;;;;;;;10243502;28;20993;-80
2021/01/26 18:01:12;;;;;;;8.10;3.20;;;;;;;;;;10244431;28;20218;-79
2021/01/26 18:06:14;;;;;;;7.67;3.57;;;;;;;;;;10247161;28;20238;-81
2021/01/26 18:11:19;;;;;;;9.70;3.43;;;;;;;;;;10238128;28;20239;-79
2021/01/26 18:16:21;;;;;;;6.60;4.00;;;;;;;;;;10246323;28;20210;-81
2021/01/26 18:21:24;;;;;;;11.27;4.13;;;;;;;;;;10236710;28;20826;-80
2021/01/26 18:26:27;;;;;;;10.53;4.23;;;;;;;;;;10237031;28;20422;-81
2021/01/26 18:31:33;;;;;;;13.53;4.33;;;;;;;;;;10239530;28;20232;-82
2021/01/26 18:36:37;;;;;;;14.47;4.67;;;;;;;;;;10239018;28;20625;-80
2021/01/26 18:41:40;;;;;;;9.20;4.50;;;;;;;;;;10241613;28;20225;-83
2021/01/26 18:46:43;;;;;;;12.53;4.90;;;;;;;;;;10244347;28;20238;-79
2021/01/26 18:51:47;;;;;;;13.20;4.97;;;;;;;;;;10242419;28;20815;-80
2021/01/26 18:56:50;;;;;;;8.97;4.43;;;;;;;;;;10250452;28;20230;-80
2021/01/26 19:01:52;;;;;;;11.87;4.67;;;;;;;;;;10250624;28;20245;-81
2021/01/26 19:06:54;;;;;;;15.20;5.03;;;;;;;;;;10247898;28;20843;-80
2021/01/26 19:11:57;;;;;;;10.63;5.40;;;;;;;;;;10249212;28;20215;-79
2021/01/26 19:16:58;;;;;;;8.23;4.80;;;;;;;;;;10247000;28;20224;-81
2021/01/26 19:22:02;;;;;;;8.97;5.10;;;;;;;;;;10251342;28;20218;-81
2021/01/26 19:27:05;;;;;;;9.07;5.27;;;;;;;;;;10250083;28;20659;-81
2021/01/26 19:32:08;;;;;;;10.30;5.07;;;;;;;;;;10245279;28;20255;-80
2021/01/26 19:37:11;;;;;;;8.87;4.80;;;;;;;;;;10257066;28;20595;-78
2021/01/26 19:42:13;;;;;;;11.83;5.30;;;;;;;;;;10248684;28;20681;-78
2021/01/26 19:47:16;;;;;;;9.90;5.07;;;;;;;;;;10250902;28;20249;-78
2021/01/26 19:52:19;;;;;;;13.00;5.27;;;;;;;;;;10246835;28;20584;-79
2021/01/26 19:57:25;;;;;;;8.93;4.93;;;;;;;;;;10250793;28;20226;-76
2021/01/26 20:02:27;;;;;;;7.13;4.80;;;;;;;;;;10251244;28;20298;-78
2021/01/26 20:07:29;;;;;;;10.00;5.10;;;;;;;;;;10247105;28;20238;-78
2021/01/26 20:12:31;;;;;;;9.17;5.27;;;;;;;;;;10240908;28;20219;-78
2021/01/26 20:17:34;;;;;;;9.43;5.23;;;;;;;;;;10249224;28;20227;-78
2021/01/26 20:22:36;;;;;;;7.67;5.13;;;;;;;;;;10247475;28;20226;-77
2021/01/26 20:27:42;;;;;;;9.50;5.10;;;;;;;;;;10237733;28;20722;-77
2021/01/26 20:32:44;;;;;;;12.43;5.43;;;;;;;;;;10250212;28;20664;-78
2021/01/26 20:37:47;;;;;;;9.27;5.30;;;;;;;;;;10248388;28;20218;-78
2021/01/26 20:42:49;;;;;;;9.30;5.13;;;;;;;;;;10243892;28;20227;-78
2021/01/26 20:47:53;;;;;;;11.20;5.20;;;;;;;;;;10247991;28;20591;-78
2021/01/26 20:52:55;;;;;;;14.90;6.10;;;;;;;;;;10244808;28;21386;-79
2021/01/26 20:57:58;;;;;;;13.73;6.20;;;;;;;;;;10245430;28;20684;-78
2021/01/26 21:02:59;;;;;;;12.70;6.47;;;;;;;;;;10251030;28;20237;-78
2021/01/26 21:08:02;;;;;;;14.93;6.63;;;;;;;;;;10248605;28;20636;-79
2021/01/26 21:13:06;;;;;;;12.47;6.40;;;;;;;;;;10245981;28;20228;-79
2021/01/26 21:18:09;;;;;;;15.13;6.97;;;;;;;;;;10246708;28;20312;-78
2021/01/26 21:23:11;;;;;;;16.10;7.53;;;;;;;;;;10244616;28;20270;-78
2021/01/26 21:28:15;;;;;;;16.63;7.03;;;;;;;;;;10236970;28;20221;-77
2021/01/26 21:33:18;;;;;;;17.83;7.70;;;;;;;;;;10240156;28;20831;-77
2021/01/26 21:38:20;;;;;;;15.03;6.87;;;;;;;;;;10246254;28;20426;-77
2021/01/26 21:43:23;;;;;;;13.23;7.30;;;;;;;;;;10240330;28;20238;-78
2021/01/26 21:48:27;;;;;;;15.70;7.40;;;;;;;;;;10238953;28;20328;-78
2021/01/26 21:53:30;;;;;;;13.23;6.80;;;;;;;;;;10237791;28;20338;-76
2021/01/26 21:58:32;;;;;;;14.60;6.80;;;;;;;;;;10236080;28;20573;-78
2021/01/26 22:03:34;;;;;;;12.87;6.33;;;;;;;;;;10242402;28;20778;-79
2021/01/26 22:08:36;;;;;;;14.87;6.30;;;;;;;;;;10241191;28;20262;-77
2021/01/26 22:13:39;;;;;;;12.50;6.50;;;;;;;;;;10238982;28;20718;-77
2021/01/26 22:18:41;;;;;;;12.97;6.37;;;;;;;;;;10241661;28;20214;-77
2021/01/26 22:23:44;;;;;;;12.30;6.40;;;;;;;;;;10244972;28;20378;-78
2021/01/26 22:28:47;;;;;;;13.53;6.17;;;;;;;;;;10242922;28;20215;-77
2021/01/26 22:33:49;;;;;;;15.63;6.20;;;;;;;;;;10244700;28;20218;-78
2021/01/26 22:38:51;;;;;;;14.07;6.10;;;;;;;;;;10247391;28;20267;-79
2021/01/26 22:43:54;;;;;;;10.07;6.10;;;;;;;;;;10250484;28;20625;-78
2021/01/26 22:48:56;;;;;;;13.07;6.43;;;;;;;;;;10254158;28;20236;-77
2021/01/26 22:53:58;;;;;;;12.57;6.13;;;;;;;;;;10251602;28;20258;-76
2021/01/26 22:59:01;;;;;;;12.70;5.83;;;;;;;;;;10247925;28;20225;-77
2021/01/26 23:04:03;;;;;;;11.80;5.97;;;;;;;;;;10249391;28;20625;-78
2021/01/26 23:09:05;;;;;;;11.77;5.67;;;;;;;;;;10250938;28;20215;-77
2021/01/26 23:14:08;;;;;;;9.50;5.60;;;;;;;;;;10247773;28;20222;-77
2021/01/26 23:19:11;;;;;;;9.83;5.33;;;;;;;;;;10252628;28;20589;-78
2021/01/26 23:24:15;;;;;;;12.13;5.43;;;;;;;;;;10256204;28;20242;-77
2021/01/26 23:29:18;;;;;;;9.00;5.40;;;;;;;;;;10251420;28;20225;-77
2021/01/26 23:34:19;;;;;;;9.43;5.30;;;;;;;;;;10252232;28;20215;-77
2021/01/26 23:39:22;;;;;;;10.77;5.17;;;;;;;;;;10250282;28;20224;-78
2021/01/26 23:44:24;;;;;;;9.07;5.10;;;;;;;;;;10250079;28;20297;-77
2021/01/26 23:49:26;;;;;;;7.33;4.50;;;;;;;;;;10253770;28;20223;-77
2021/01/26 23:54:28;;;;;;;6.43;4.20;;;;;;;;;;10252300;28;20624;-76
2021/01/26 23:59:31;;;;;;;7.23;4.30;;;;;;;;;;10249192;28;20218;-78
